Time;durP1;ratioP1;P1;durP2;ratioP2;P2;SDS_P1;SDS_P2;PMS_P1;PMS_P2;Temp;Humidity;BMP_temperature;BMP_pressure;BME280_temperature;BME280_humidity;BME280_pressure;Samples;Min_cycle;Max_cycle;Signal;HPM_P1;HPM_P2
2023/06/08 00:00:25;;;;;;;32.08;17.10;;;;;;;10.76;100.00;101877.44;4957335;28;20877;-52
2023/06/08 00:02:51;;;;;;;30.98;18.23;;;;;;;10.82;100.00;101871.06;4953062;28;20317;-48
2023/06/08 00:05:18;;;;;;;29.65;19.17;;;;;;;10.78;100.00;101872.94;4946751;28;20188;-53
2023/06/08 00:07:43;;;;;;;28.58;18.67;;;;;;;10.90;100.00;101869.97;4964279;28;20202;-49
2023/06/08 00:10:09;;;;;;;31.17;19.92;;;;;;;10.91;100.00;101873.50;4950627;28;20206;-53
2023/06/08 00:12:36;;;;;;;28.88;19.83;;;;;;;10.74;100.00;101865.88;4960242;28;20234;-51
2023/06/08 00:15:03;;;;;;;27.27;19.02;;;;;;;10.78;100.00;101866.66;4944557;28;20555;-49
2023/06/08 00:17:28;;;;;;;29.25;20.45;;;;;;;10.78;100.00;101872.03;4967578;28;20372;-48
2023/06/08 00:19:56;;;;;;;22.85;17.73;;;;;;;10.78;100.00;101867.56;4942259;28;20281;-48
2023/06/08 00:22:22;;;;;;;23.25;18.13;;;;;;;10.66;100.00;101867.84;4940512;28;20678;-50
2023/06/08 00:24:48;;;;;;;30.92;19.98;;;;;;;10.56;100.00;101861.81;4953684;28;20199;-52
2023/06/08 00:27:14;;;;;;;31.27;21.20;;;;;;;10.64;100.00;101864.31;4937525;29;20207;-49
2023/06/08 00:29:39;;;;;;;27.35;22.20;;;;;;;10.56;100.00;101864.50;4936703;29;20183;-50
2023/06/08 00:32:05;;;;;;;29.02;21.60;;;;;;;10.62;100.00;101864.34;4961935;28;20278;-47
2023/06/08 00:34:35;;;;;;;29.83;21.20;;;;;;;10.66;100.00;101870.53;4959995;28;20551;-49
2023/06/08 00:37:00;;;;;;;35.25;21.88;;;;;;;10.51;100.00;101874.41;4945767;28;20207;-49
2023/06/08 00:39:25;;;;;;;34.72;21.90;;;;;;;10.49;100.00;101869.09;4938605;28;20181;-46
2023/06/08 00:41:51;;;;;;;22.25;18.08;;;;;;;10.65;100.00;101871.44;4935436;28;20215;-49
2023/06/08 00:44:16;;;;;;;21.08;18.27;;;;;;;10.30;100.00;101871.28;4961535;28;20204;-49
2023/06/08 00:46:42;;;;;;;27.20;17.20;;;;;;;10.51;100.00;101863.69;4965521;28;20574;-53
2023/06/08 00:49:11;;;;;;;25.98;17.77;;;;;;;10.51;100.00;101869.03;4968032;28;20603;-50
2023/06/08 00:51:41;;;;;;;65.32;17.83;;;;;;;9.99;100.00;101870.97;4966144;28;20281;-51
2023/06/08 00:54:10;;;;;;;21.50;15.02;;;;;;;10.05;100.00;101865.47;4974199;28;20372;-51
2023/06/08 00:56:36;;;;;;;24.60;17.38;;;;;;;9.97;100.00;101874.56;4968127;28;20212;-48
2023/06/08 00:59:03;;;;;;;23.10;17.25;;;;;;;9.94;100.00;101870.16;4963732;28;20189;-47
2023/06/08 01:01:29;;;;;;;20.25;16.25;;;;;;;10.23;100.00;101877.63;4965753;28;20337;-47
2023/06/08 01:04:05;;;;;;;24.88;17.30;;;;;;;10.40;100.00;101876.44;4973729;28;20178;-51
2023/06/08 01:06:35;;;;;;;24.83;18.83;;;;;;;10.35;100.00;101879.22;4974796;28;20221;-52
2023/06/08 01:09:04;;;;;;;23.88;18.73;;;;;;;10.29;100.00;101874.84;4973941;28;20190;-51
2023/06/08 01:11:36;;;;;;;36.97;18.02;;;;;;;10.20;100.00;101875.00;4973409;28;20177;-48
2023/06/08 01:14:41;;;;;;;29.85;18.70;;;;;;;10.23;100.00;101872.28;4958976;28;20186;-50
2023/06/08 01:17:09;;;;;;;20.30;17.13;;;;;;;10.34;100.00;101868.50;4969696;28;20190;-49
2023/06/08 01:19:47;;;;;;;21.42;17.55;;;;;;;10.25;100.00;101874.91;4983509;28;20186;-48
2023/06/08 01:22:38;;;;;;;27.85;18.92;;;;;;;10.30;100.00;101881.97;4969392;28;20608;-48
2023/06/08 01:25:07;;;;;;;30.55;20.38;;;;;;;10.33;100.00;101869.44;4985783;28;20225;-49
2023/06/08 01:27:36;;;;;;;26.38;20.48;;;;;;;10.11;100.00;101872.50;4968521;28;20320;-52
2023/06/08 01:30:06;;;;;;;30.02;20.55;;;;;;;10.16;100.00;101877.78;4970029;28;20280;-48
2023/06/08 01:32:32;;;;;;;33.50;21.48;;;;;;;10.15;100.00;101876.91;4979968;28;20559;-51
2023/06/08 01:34:58;;;;;;;24.95;20.45;;;;;;;10.33;100.00;101880.16;4972806;28;20187;-50
2023/06/08 01:37:32;;;;;;;51.90;20.52;;;;;;;10.04;100.00;101874.44;4967664;28;20696;-51
2023/06/08 01:40:08;;;;;;;31.33;18.92;;;;;;;9.87;100.00;101876.53;4976681;28;20188;-50
2023/06/08 01:42:35;;;;;;;24.67;18.27;;;;;;;10.07;100.00;101876.16;4970227;28;20736;-48
2023/06/08 01:45:10;;;;;;;21.90;18.25;;;;;;;10.24;100.00;101883.88;4980055;28;20440;-50
2023/06/08 01:48:01;;;;;;;25.20;18.90;;;;;;;10.03;100.00;101874.44;4967853;28;20233;-48
2023/06/08 01:50:28;;;;;;;25.50;17.42;;;;;;;10.00;100.00;101874.53;4969664;28;20216;-51
2023/06/08 01:52:55;;;;;;;28.15;17.52;;;;;;;9.96;100.00;101878.16;4973217;28;20228;-48
2023/06/08 01:55:22;;;;;;;21.75;18.15;;;;;;;10.01;100.00;101879.81;4969944;28;20182;-49
2023/06/08 01:57:48;;;;;;;21.73;16.45;;;;;;;9.88;100.00;101879.19;4974460;28;20289;-47
2023/06/08 02:00:16;;;;;;;20.00;16.50;;;;;;;9.96;100.00;101875.50;4965807;28;20817;-52
2023/06/08 02:02:42;;;;;;;31.40;17.00;;;;;;;9.81;100.00;101882.88;4972359;28;20565;-48
2023/06/08 02:05:10;;;;;;;24.67;16.50;;;;;;;9.93;100.00;101875.53;4968192;28;20683;-48
2023/06/08 02:07:36;;;;;;;22.65;17.15;;;;;;;10.03;100.00;101872.66;4968185;28;20261;-48
2023/06/08 02:10:04;;;;;;;20.73;16.42;;;;;;;10.19;100.00;101881.28;4983609;28;20244;-48
2023/06/08 02:12:30;;;;;;;21.13;16.42;;;;;;;10.18;100.00;101878.63;4964042;28;20225;-51
2023/06/08 02:14:55;;;;;;;20.02;16.00;;;;;;;10.10;100.00;101873.41;4983193;28;20198;-52
2023/06/08 02:17:25;;;;;;;19.52;15.82;;;;;;;10.11;100.00;101869.84;4972197;28;20284;-48
2023/06/08 02:19:51;;;;;;;23.95;18.52;;;;;;;9.97;100.00;101871.88;4969207;28;20704;-52
2023/06/08 02:22:16;;;;;;;18.67;15.48;;;;;;;10.17;100.00;101874.19;4970160;28;20202;-47
2023/06/08 02:24:44;;;;;;;26.05;17.48;;;;;;;9.85;100.00;101873.88;4980890;28;20246;-52
2023/06/08 02:27:09;;;;;;;21.73;17.67;;;;;;;9.93;100.00;101878.19;4978846;28;20230;-55
2023/06/08 02:29:35;;;;;;;24.60;17.58;;;;;;;9.53;100.00;101879.78;4972196;28;20186;-50
2023/06/08 02:32:01;;;;;;;26.60;16.92;;;;;;;9.74;100.00;101886.59;4976494;28;20302;-50
2023/06/08 02:34:27;;;;;;;25.50;16.77;;;;;;;9.64;100.00;101872.50;4972316;28;20196;-49
2023/06/08 02:36:53;;;;;;;28.70;18.15;;;;;;;9.68;100.00;101878.66;4970865;28;20210;-51
2023/06/08 02:39:18;;;;;;;25.85;17.23;;;;;;;9.70;100.00;101869.69;4974595;28;20194;-48
2023/06/08 02:41:44;;;;;;;34.75;17.98;;;;;;;9.71;100.00;101878.63;4977570;28;20301;-51
2023/06/08 02:44:10;;;;;;;27.95;18.15;;;;;;;9.81;100.00;101871.28;4964373;28;20210;-49
2023/06/08 02:46:36;;;;;;;22.95;16.55;;;;;;;9.99;100.00;101870.97;4974570;28;20221;-48
2023/06/08 02:49:02;;;;;;;32.90;18.27;;;;;;;9.88;100.00;101871.16;4980136;28;20194;-49
2023/06/08 02:51:27;;;;;;;28.85;17.33;;;;;;;9.83;100.00;101878.38;4965160;28;20193;-50
2023/06/08 02:53:53;;;;;;;30.83;17.83;;;;;;;9.65;100.00;101882.28;4971669;28;20839;-49
2023/06/08 02:56:19;;;;;;;26.27;17.38;;;;;;;9.79;100.00;101887.38;4982731;28;20237;-51
2023/06/08 02:58:46;;;;;;;26.75;17.38;;;;;;;9.99;100.00;101875.41;4977975;28;20198;-55
2023/06/08 03:01:15;;;;;;;22.95;16.73;;;;;;;9.80;100.00;101882.94;4975089;28;20218;-50
2023/06/08 03:03:53;;;;;;;23.38;16.85;;;;;;;9.68;100.00;101874.19;4966128;28;20185;-49
2023/06/08 03:06:20;;;;;;;22.73;17.77;;;;;;;9.68;100.00;101873.31;4968792;28;20289;-53
2023/06/08 03:08:54;;;;;;;24.40;17.23;;;;;;;9.63;100.00;101868.03;4965965;28;20190;-49
2023/06/08 03:11:22;;;;;;;25.60;16.95;;;;;;;9.56;100.00;101865.50;4978555;28;20245;-47
2023/06/08 03:13:49;;;;;;;26.77;18.42;;;;;;;9.63;100.00;101857.34;4970386;28;20193;-48
2023/06/08 03:16:16;;;;;;;30.23;18.48;;;;;;;9.61;100.00;101863.63;4972307;28;20202;-47
2023/06/08 03:18:44;;;;;;;26.73;17.35;;;;;;;9.51;100.00;101862.00;4979372;28;20198;-49
2023/06/08 03:21:12;;;;;;;26.27;17.25;;;;;;;9.68;100.00;101857.25;4951535;28;20210;-47
2023/06/08 03:23:38;;;;;;;30.75;16.42;;;;;;;9.67;100.00;101861.72;4965149;28;20193;-50
2023/06/08 03:26:05;;;;;;;30.88;17.08;;;;;;;9.33;100.00;101847.16;4972358;28;20214;-52
2023/06/08 03:28:31;;;;;;;22.17;15.07;;;;;;;9.65;100.00;101854.63;4978319;28;20676;-50
2023/06/08 03:30:56;;;;;;;24.38;16.20;;;;;;;9.54;100.00;101856.63;4976467;28;20641;-47
2023/06/08 03:33:26;;;;;;;24.27;16.30;;;;;;;9.66;100.00;101856.38;4976530;28;20198;-50
2023/06/08 03:35:58;;;;;;;24.48;15.85;;;;;;;9.63;100.00;101849.31;4969407;28;20210;-50
2023/06/08 03:38:30;;;;;;;24.58;16.75;;;;;;;9.59;100.00;101857.41;4955989;28;20194;-48
2023/06/08 03:41:01;;;;;;;24.90;15.70;;;;;;;9.73;100.00;101852.72;4975445;28;20588;-49
2023/06/08 03:43:28;;;;;;;23.38;16.55;;;;;;;9.62;100.00;101852.91;4975439;28;20218;-51
2023/06/08 03:45:55;;;;;;;21.60;17.08;;;;;;;9.69;100.00;101851.88;4972283;28;20639;-49
2023/06/08 03:48:20;;;;;;;25.50;16.92;;;;;;;9.59;100.00;101852.06;4974286;28;20198;-48
2023/06/08 03:50:47;;;;;;;23.45;16.60;;;;;;;9.59;100.00;101857.41;4971988;28;20182;-49
2023/06/08 03:53:13;;;;;;;27.27;16.98;;;;;;;9.55;100.00;101848.56;4973299;28;20190;-51
2023/06/08 03:55:39;;;;;;;27.75;16.90;;;;;;;9.71;100.00;101849.19;4965432;28;20248;-50
2023/06/08 03:58:05;;;;;;;21.55;15.73;;;;;;;9.72;100.00;101850.94;4971371;28;20214;-51
2023/06/08 04:00:33;;;;;;;26.40;15.82;;;;;;;9.68;100.00;101846.53;4981559;28;20218;-49
2023/06/08 04:02:58;;;;;;;28.45;16.30;;;;;;;9.72;100.00;101845.59;4976499;28;20240;-55
2023/06/08 04:05:24;;;;;;;27.85;15.88;;;;;;;9.81;100.00;101853.44;4966890;28;20673;-51
2023/06/08 04:07:53;;;;;;;23.83;14.60;;;;;;;10.01;100.00;101852.19;4970609;28;20321;-48
2023/06/08 04:10:18;;;;;;;28.65;16.20;;;;;;;9.81;100.00;101853.44;4969125;28;20189;-55
2023/06/08 04:12:45;;;;;;;26.65;15.77;;;;;;;9.68;100.00;101846.53;4967807;28;20349;-53
2023/06/08 04:15:13;;;;;;;27.70;16.50;;;;;;;9.43;100.00;101848.78;4961633;28;20578;-50
2023/06/08 04:17:43;;;;;;;25.05;15.43;;;;;;;9.52;100.00;101840.59;4956451;28;20368;-50
2023/06/08 04:20:12;;;;;;;27.05;15.27;;;;;;;9.68;100.00;101841.19;4965951;28;20182;-50
2023/06/08 04:22:37;;;;;;;22.67;15.05;;;;;;;9.97;100.00;101840.66;4972836;28;20189;-50
2023/06/08 04:25:05;;;;;;;24.70;15.23;;;;;;;10.03;100.00;101845.88;4948656;28;20228;-50
2023/06/08 04:27:31;;;;;;;24.88;15.68;;;;;;;9.76;100.00;101841.94;4959336;28;20233;-47
2023/06/08 04:29:57;;;;;;;23.98;15.15;;;;;;;9.80;100.00;101840.97;4972342;28;20212;-51
2023/06/08 04:32:23;;;;;;;27.98;15.98;;;;;;;9.85;100.00;101854.28;4970738;28;20273;-50
2023/06/08 04:34:49;;;;;;;24.55;15.98;;;;;;;9.75;100.00;101842.88;4965737;28;20261;-49
2023/06/08 04:37:15;;;;;;;25.52;15.07;;;;;;;9.83;100.00;101842.72;4960114;28;20344;-48
2023/06/08 04:39:42;;;;;;;22.88;15.30;;;;;;;9.83;100.00;101842.72;4961627;28;20186;-51
2023/06/08 04:42:08;;;;;;;25.80;15.63;;;;;;;9.88;100.00;101838.13;4971347;28;20577;-51
2023/06/08 04:44:34;;;;;;;22.00;14.02;;;;;;;9.59;100.00;101841.38;4964997;28;20575;-53
2023/06/08 04:47:02;;;;;;;23.45;14.90;;;;;;;9.68;100.00;101849.22;4964521;28;20198;-49
2023/06/08 04:49:31;;;;;;;26.77;14.10;;;;;;;9.81;100.00;101845.41;4973897;28;20253;-48
2023/06/08 04:52:00;;;;;;;18.85;12.65;;;;;;;9.68;100.00;101843.88;4967757;28;20249;-51
2023/06/08 04:54:29;;;;;;;23.58;13.73;;;;;;;9.68;100.00;101835.84;4956941;28;20232;-51
2023/06/08 04:56:58;;;;;;;18.35;13.45;;;;;;;9.47;100.00;101845.16;4979585;28;20272;-50
2023/06/08 04:59:27;;;;;;;23.45;13.77;;;;;;;9.72;100.00;101836.69;4976732;28;20214;-47
2023/06/08 05:01:53;;;;;;;20.20;12.98;;;;;;;9.86;100.00;101835.50;4964683;28;20249;-49
2023/06/08 05:04:20;;;;;;;17.80;13.30;;;;;;;9.72;100.00;101829.53;4967426;28;20194;-49
2023/06/08 05:06:45;;;;;;;20.35;13.43;;;;;;;9.72;100.00;101836.69;4972155;28;20611;-48
2023/06/08 05:09:12;;;;;;;19.27;13.52;;;;;;;9.87;100.00;101823.00;4967627;28;20194;-49
2023/06/08 05:11:38;;;;;;;23.60;13.20;;;;;;;9.96;100.00;101835.34;4960548;28;20193;-47
2023/06/08 05:14:03;;;;;;;25.00;13.98;;;;;;;9.85;100.00;101825.69;4969814;28;20182;-48
2023/06/08 05:16:29;;;;;;;22.05;14.18;;;;;;;9.79;100.00;101838.31;4968432;28;20214;-48
2023/06/08 05:18:55;;;;;;;22.02;13.73;;;;;;;10.04;100.00;101823.56;4959826;28;20208;-46
2023/06/08 05:21:20;;;;;;;28.15;14.50;;;;;;;10.02;100.00;101829.84;4963013;28;20732;-48
2023/06/08 05:23:46;;;;;;;24.08;13.18;;;;;;;9.94;100.00;101827.31;4966083;28;20277;-45
2023/06/08 05:26:12;;;;;;;22.73;13.05;;;;;;;9.95;100.00;101826.44;4964748;28;20202;-46
2023/06/08 05:28:37;;;;;;;22.77;13.75;;;;;;;10.23;100.00;101828.53;5043958;22;20345;-49
2023/06/08 05:31:03;;;;;;;18.63;12.20;;;;;;;10.22;100.00;101830.31;5057964;28;20222;-49
2023/06/08 05:33:28;;;;;;;20.48;13.43;;;;;;;10.04;100.00;101826.22;5063712;28;20179;-49
2023/06/08 05:35:54;;;;;;;19.08;12.50;;;;;;;9.94;100.00;101821.97;5061426;28;20588;-51
2023/06/08 05:38:20;;;;;;;24.02;13.50;;;;;;;10.03;100.00;101831.59;5055160;28;20626;-50
2023/06/08 05:40:45;;;;;;;20.42;13.05;;;;;;;10.03;100.00;101826.25;4975202;28;20306;-51
2023/06/08 05:43:11;;;;;;;19.13;12.38;;;;;;;10.08;100.00;101819.03;5036607;28;20204;-50
2023/06/08 05:45:36;;;;;;;22.83;12.65;;;;;;;10.42;100.00;101819.22;5047621;28;20652;-50
2023/06/08 05:48:02;;;;;;;23.88;13.95;;;;;;;10.26;100.00;101832.03;5039832;28;20612;-50
2023/06/08 05:50:27;;;;;;;18.40;12.25;;;;;;;10.29;100.00;101826.63;5038905;28;20176;-50
2023/06/08 05:52:53;;;;;;;27.50;14.00;;;;;;;10.65;100.00;101824.09;5039673;28;20192;-51
2023/06/08 05:55:19;;;;;;;20.48;12.63;;;;;;;10.76;100.00;101833.66;5037140;28;20266;-52
2023/06/08 05:57:44;;;;;;;17.33;11.00;;;;;;;10.78;100.00;101823.78;5037537;28;20242;-52
2023/06/08 06:00:10;;;;;;;21.48;11.63;;;;;;;10.96;100.00;101823.38;5038956;28;20642;-51
2023/06/08 06:02:39;;;;;;;19.92;11.75;;;;;;;11.17;100.00;101821.06;5037558;28;20195;-49
2023/06/08 06:05:08;;;;;;;19.15;11.95;;;;;;;11.29;100.00;101823.47;5039472;28;20206;-50
2023/06/08 06:07:35;;;;;;;17.58;11.63;;;;;;;10.96;100.00;101828.72;5040786;28;20216;-50
2023/06/08 06:10:01;;;;;;;13.30;9.85;;;;;;;11.57;100.00;101833.47;5040160;28;20188;-51
2023/06/08 06:12:26;;;;;;;16.92;10.98;;;;;;;11.78;100.00;101826.66;5040877;28;20188;-48
2023/06/08 06:14:52;;;;;;;22.17;12.70;;;;;;;11.18;100.00;101826.41;5036368;28;20186;-49
2023/06/08 06:17:18;;;;;;;20.52;13.02;;;;;;;11.10;100.00;101826.56;5038477;28;20279;-50
2023/06/08 06:19:43;;;;;;;20.27;13.43;;;;;;;11.52;100.00;101830.91;5039997;28;20192;-49
2023/06/08 06:22:10;;;;;;;26.77;14.30;;;;;;;11.11;100.00;101827.50;5042377;28;20287;-49
2023/06/08 06:24:36;;;;;;;19.83;13.68;;;;;;;11.24;100.00;101828.94;5043236;28;20211;-50
2023/06/08 06:27:03;;;;;;;19.70;13.38;;;;;;;11.03;100.00;101829.47;5034861;28;20220;-49
2023/06/08 06:29:29;;;;;;;23.30;13.95;;;;;;;11.04;100.00;101826.75;5037604;28;20592;-48
2023/06/08 06:31:54;;;;;;;27.42;12.30;;;;;;;12.02;100.00;101834.06;5041078;28;20282;-49
2023/06/08 06:34:20;;;;;;;18.30;11.05;;;;;;;11.74;100.00;101823.16;5039273;28;20191;-49
2023/06/08 06:36:46;;;;;;;19.80;10.63;;;;;;;12.14;100.00;101822.09;5038963;28;20733;-49
2023/06/08 06:42:59;;;;;;;21.45;11.38;;;;;;;12.88;99.81;101809.97;5033085;28;20180;-51
2023/06/08 06:45:30;;;;;;;14.43;9.38;;;;;;;13.08;98.96;101812.03;5054296;28;20184;-50
2023/06/08 06:47:56;;;;;;;15.75;9.50;;;;;;;13.71;96.59;101814.38;5037763;28;20214;-49
2023/06/08 06:50:21;;;;;;;17.35;8.27;;;;;;;13.94;93.67;101805.50;5039875;28;20267;-50
2023/06/08 06:52:47;;;;;;;15.52;8.77;;;;;;;13.63;90.87;101793.13;5037899;28;20184;-50
2023/06/08 06:55:12;;;;;;;17.85;8.25;;;;;;;13.49;89.67;101796.31;5034830;28;20199;-51
2023/06/08 06:57:38;;;;;;;15.52;9.05;;;;;;;13.93;88.33;101801.06;5042687;28;20202;-50
2023/06/08 07:00:10;;;;;;;16.88;9.65;;;;;;;14.09;87.80;101798.66;5038781;28;20207;-51
2023/06/08 07:02:37;;;;;;;20.20;9.32;;;;;;;13.69;87.71;101800.13;5040040;28;20223;-52
2023/06/08 07:05:10;;;;;;;19.52;8.52;;;;;;;13.71;87.21;101799.13;5041596;28;20552;-51
2023/06/08 07:07:36;;;;;;;16.33;8.70;;;;;;;13.72;87.27;101798.19;5041707;28;20203;-52
2023/06/08 07:10:02;;;;;;;20.17;9.25;;;;;;;13.94;87.82;101803.66;5040172;28;20186;-51
2023/06/08 07:12:29;;;;;;;16.05;8.88;;;;;;;13.44;87.16;101808.16;5038054;28;20206;-51
2023/06/08 07:14:55;;;;;;;15.48;8.88;;;;;;;13.88;87.22;101801.19;5035812;28;20202;-50
2023/06/08 07:17:21;;;;;;;13.00;7.97;;;;;;;14.53;86.35;101801.47;5047097;28;20307;-51
2023/06/08 07:19:47;;;;;;;17.50;8.80;;;;;;;14.29;84.90;101795.19;5038603;28;20188;-52
2023/06/08 07:22:13;;;;;;;13.57;7.32;;;;;;;15.08;84.38;101799.25;5037320;28;20200;-53
2023/06/08 07:24:38;;;;;;;15.70;8.23;;;;;;;14.84;82.49;101793.06;5041883;28;20256;-50
2023/06/08 07:27:05;;;;;;;12.32;8.20;;;;;;;15.20;82.64;101798.75;5034951;28;20609;-52
2023/06/08 07:29:31;;;;;;;15.70;8.82;;;;;;;15.00;81.81;101796.03;5036667;28;20191;-50
2023/06/08 07:31:56;;;;;;;19.20;8.95;;;;;;;14.22;81.47;101789.16;5038117;28;20554;-51
2023/06/08 07:34:22;;;;;;;12.93;8.70;;;;;;;14.31;82.87;101799.59;5034500;28;20172;-49
2023/06/08 07:36:48;;;;;;;14.50;8.30;;;;;;;14.55;82.36;101799.63;5037459;28;20211;-50
2023/06/08 07:39:13;;;;;;;13.55;9.13;;;;;;;14.35;81.47;101786.88;5041454;28;20190;-49
2023/06/08 07:41:39;;;;;;;17.70;9.00;;;;;;;14.65;82.38;101790.25;5036360;28;20844;-50
2023/06/08 07:44:04;;;;;;;16.30;9.23;;;;;;;14.49;82.72;101789.91;5038291;28;20192;-51
2023/06/08 07:46:31;;;;;;;17.45;9.13;;;;;;;14.82;84.36;101801.22;5034792;28;20191;-52
2023/06/08 07:48:58;;;;;;;17.95;8.85;;;;;;;13.68;84.50;101793.84;5035929;28;20233;-52
2023/06/08 07:51:25;;;;;;;18.30;9.35;;;;;;;14.06;86.49;101793.38;5053339;28;20315;-52
2023/06/08 07:53:50;;;;;;;12.68;7.97;;;;;;;15.49;84.25;101802.03;5039208;28;20182;-53
2023/06/08 07:56:16;;;;;;;16.73;8.30;;;;;;;16.02;82.65;101795.22;5038853;28;20238;-53
2023/06/08 07:58:42;;;;;;;17.73;8.90;;;;;;;15.70;80.22;101789.41;5039336;28;20657;-53
2023/06/08 08:01:07;;;;;;;17.00;9.60;;;;;;;14.62;82.09;101790.34;5033443;28;20200;-51
2023/06/08 08:03:37;;;;;;;19.25;9.38;;;;;;;15.64;83.37;101787.84;5038285;28;20179;-52
2023/06/08 08:06:02;;;;;;;15.77;9.13;;;;;;;14.90;83.02;101787.41;5039245;28;20297;-53
2023/06/08 08:08:28;;;;;;;17.23;8.95;;;;;;;14.12;83.32;101790.44;5037933;28;20677;-53
2023/06/08 08:10:54;;;;;;;12.75;8.35;;;;;;;14.85;85.22;101792.13;5037145;28;20261;-52
2023/06/08 08:13:19;;;;;;;16.13;9.00;;;;;;;15.88;84.26;101801.25;5040811;28;20259;-53
2023/06/08 08:15:45;;;;;;;15.10;8.07;;;;;;;16.53;82.42;101795.56;5033999;28;20191;-52
2023/06/08 08:18:12;;;;;;;14.73;9.00;;;;;;;16.04;81.39;101790.63;5036883;28;20187;-54
2023/06/08 08:20:38;;;;;;;19.80;8.77;;;;;;;15.37;81.26;101787.25;5039344;28;20202;-52
2023/06/08 08:23:05;;;;;;;17.13;8.80;;;;;;;15.80;82.41;101790.78;5039495;28;20539;-51
2023/06/08 08:25:31;;;;;;;20.48;9.40;;;;;;;15.64;82.50;101792.38;5038620;28;20253;-54
2023/06/08 08:27:56;;;;;;;15.25;8.10;;;;;;;15.49;81.58;101777.72;5033652;28;20234;-51
2023/06/08 08:30:22;;;;;;;16.25;8.35;;;;;;;15.49;80.98;101796.63;5033993;28;20318;-53
2023/06/08 08:32:48;;;;;;;15.48;8.57;;;;;;;14.92;80.89;101790.94;5036405;28;20180;-51
2023/06/08 08:35:14;;;;;;;17.33;8.43;;;;;;;15.34;80.93;101790.06;5036695;28;20182;-52
2023/06/08 08:37:42;;;;;;;16.77;8.80;;;;;;;16.72;79.10;101788.31;5036454;28;20212;-52
2023/06/08 08:40:09;;;;;;;18.30;8.73;;;;;;;17.37;75.51;101774.28;5035729;28;20638;-51
2023/06/08 08:42:41;;;;;;;19.35;8.15;;;;;;;17.91;73.53;101756.09;5035450;28;20298;-52
2023/06/08 08:45:09;;;;;;;17.65;8.57;;;;;;;17.78;72.97;101761.28;5037736;28;20188;-52
2023/06/08 08:47:37;;;;;;;14.55;7.72;;;;;;;18.04;70.66;101749.06;5037024;28;20204;-53
2023/06/08 08:50:09;;;;;;;15.40;8.13;;;;;;;17.99;68.99;101740.28;5043935;28;20680;-51
2023/06/08 08:52:40;;;;;;;19.80;8.57;;;;;;;17.25;71.17;101754.13;5036241;28;20183;-53
2023/06/08 08:55:06;;;;;;;13.70;7.93;;;;;;;17.96;71.22;101755.84;5036693;28;20202;-52
2023/06/08 08:57:32;;;;;;;15.60;7.47;;;;;;;18.14;69.61;101734.97;5037719;28;20249;-50
2023/06/08 08:59:58;;;;;;;9.55;7.43;;;;;;;16.69;70.32;101742.47;5051254;28;20184;-51
2023/06/08 09:02:25;;;;;;;12.73;7.03;;;;;;;17.07;72.25;101770.34;5044187;28;20561;-52
2023/06/08 09:04:54;;;;;;;14.05;7.68;;;;;;;16.41;71.29;101767.28;5038157;28;20188;-51
2023/06/08 09:07:21;;;;;;;13.35;7.40;;;;;;;16.65;71.76;101755.25;5035993;28;20195;-52
2023/06/08 09:10:19;;;;;;;12.63;6.95;;;;;;;17.92;71.63;101749.72;5039339;28;20591;-52
2023/06/08 09:12:46;;;;;;;14.50;8.15;;;;;;;17.67;68.92;101740.16;5050143;28;20214;-51
2023/06/08 09:15:16;;;;;;;18.95;8.05;;;;;;;17.74;68.81;101739.84;5041111;28;20194;-52
2023/06/08 09:17:44;;;;;;;13.57;7.00;;;;;;;18.29;69.00;101742.25;5026781;28;20248;-51
2023/06/08 09:20:11;;;;;;;11.98;6.40;;;;;;;18.12;67.19;101721.50;5038449;28;20673;-51
2023/06/08 09:26:31;;;;;;;11.20;7.45;;;;;;;16.77;68.00;101740.28;5042013;28;20628;-51
2023/06/08 09:28:56;;;;;;;11.18;7.15;;;;;;;18.20;67.59;101740.94;5042015;28;20630;-50
2023/06/08 09:31:22;;;;;;;13.98;7.22;;;;;;;18.14;66.26;101726.84;5040608;28;20172;-52
2023/06/08 09:33:48;;;;;;;13.93;6.68;;;;;;;18.57;66.36;101724.41;5040261;28;20619;-49
2023/06/08 09:36:16;;;;;;;12.60;6.47;;;;;;;19.32;63.44;101709.97;5039508;28;20296;-52
2023/06/08 09:38:42;;;;;;;9.63;6.45;;;;;;;19.20;63.75;101708.03;5055558;28;20604;-52
2023/06/08 09:41:21;;;;;;;14.40;7.03;;;;;;;19.30;62.04;101692.91;5042047;28;20607;-50
2023/06/08 09:43:49;;;;;;;10.88;6.80;;;;;;;20.08;61.52;101687.16;5036864;28;20225;-54
2023/06/08 09:46:35;;;;;;;10.32;6.55;;;;;;;19.87;60.86;101686.66;5048120;28;20196;-51
2023/06/08 09:49:04;;;;;;;11.32;6.63;;;;;;;18.84;61.98;101690.25;5038111;28;20532;-52
2023/06/08 09:51:33;;;;;;;12.35;7.13;;;;;;;19.20;62.09;101697.16;5038374;28;20179;-51
2023/06/08 09:54:00;;;;;;;17.70;6.60;;;;;;;18.72;62.37;101694.53;5038437;28;20171;-51
2023/06/08 09:56:27;;;;;;;14.38;6.55;;;;;;;18.85;63.92;101708.28;5042868;28;20736;-52
2023/06/08 09:58:58;;;;;;;15.98;7.63;;;;;;;18.88;64.53;101713.53;5041280;28;20263;-51
2023/06/08 10:01:35;;;;;;;15.43;8.45;;;;;;;18.42;65.53;101712.59;5036609;28;20278;-51
2023/06/08 10:04:11;;;;;;;16.88;8.00;;;;;;;18.65;65.47;101716.69;5036515;28;20191;-52
2023/06/08 10:06:39;;;;;;;12.85;7.65;;;;;;;18.52;65.18;101711.97;5041579;28;20232;-51
2023/06/08 10:09:07;;;;;;;13.40;7.32;;;;;;;19.05;65.71;101722.53;5043971;28;20171;-53
2023/06/08 10:11:34;;;;;;;12.27;7.20;;;;;;;18.82;64.42;101707.59;5041279;28;20210;-52
2023/06/08 10:13:59;;;;;;;15.60;7.38;;;;;;;18.71;64.45;101711.78;5037756;28;20638;-51
2023/06/08 10:16:25;;;;;;;12.77;7.35;;;;;;;18.64;65.27;101713.09;5041802;28;20285;-51
2023/06/08 10:18:51;;;;;;;12.65;7.40;;;;;;;18.36;66.26;101721.94;5048557;28;20654;-54
2023/06/08 10:21:17;;;;;;;13.00;6.93;;;;;;;18.56;66.04;101703.66;5035615;28;20230;-50
2023/06/08 10:23:44;;;;;;;12.30;6.95;;;;;;;19.00;64.07;101694.75;5019365;28;20591;-51
2023/06/08 10:26:10;;;;;;;17.13;8.02;;;;;;;18.76;65.00;101694.34;5041886;28;20214;-52
2023/06/08 10:28:56;;;;;;;16.55;8.00;;;;;;;18.46;66.26;101712.31;5040797;28;20223;-52
2023/06/08 10:31:31;;;;;;;13.82;8.68;;;;;;;18.32;67.50;101717.66;5038901;28;20198;-53
2023/06/08 10:34:16;;;;;;;14.05;9.35;;;;;;;18.41;68.12;101717.16;5037710;28;20233;-52
2023/06/08 10:36:43;;;;;;;16.88;9.10;;;;;;;18.37;67.68;101715.56;5040249;28;20215;-52
2023/06/08 10:39:14;;;;;;;17.10;8.40;;;;;;;18.46;67.87;101715.03;5037533;28;20164;-51
2023/06/08 10:46:03;;;;;;;17.73;9.55;;;;;;;18.43;69.02;101712.53;5039269;28;20200;-53
2023/06/08 10:48:39;;;;;;;20.23;10.50;;;;;;;18.01;70.60;101727.50;5038956;28;20192;-52
2023/06/08 10:51:09;;;;;;;15.80;8.57;;;;;;;18.39;70.91;101723.59;5039463;28;20163;-53
2023/06/08 10:53:57;;;;;;;16.45;9.30;;;;;;;18.23;71.01;101723.59;5042074;28;20277;-52
2023/06/08 10:56:27;;;;;;;18.95;9.73;;;;;;;18.31;70.05;101707.78;5038961;28;20198;-54
2023/06/08 10:58:53;;;;;;;15.00;9.20;;;;;;;18.32;71.08;101717.66;5038235;28;20195;-53
2023/06/08 11:01:19;;;;;;;17.17;10.23;;;;;;;18.47;70.82;101726.75;5039096;28;20198;-52
2023/06/08 11:03:46;;;;;;;17.50;10.30;;;;;;;18.35;71.66;101722.06;5038152;28;20180;-53
2023/06/08 11:06:15;;;;;;;22.20;10.63;;;;;;;18.58;72.71;101718.00;5043687;28;20195;-52
2023/06/08 11:08:41;;;;;;;15.30;10.95;;;;;;;18.33;73.57;101724.84;5036006;28;20173;-51
2023/06/08 11:11:10;;;;;;;21.08;9.90;;;;;;;18.47;73.67;101713.19;5038301;28;20190;-52
2023/06/08 11:13:35;;;;;;;14.93;10.50;;;;;;;18.42;73.50;101715.31;5040911;28;20180;-50
2023/06/08 11:16:01;;;;;;;19.10;10.40;;;;;;;18.39;73.10;101716.38;5044645;28;20207;-53
2023/06/08 11:18:29;;;;;;;17.10;10.63;;;;;;;18.41;73.63;101718.97;5044707;28;20236;-52
2023/06/08 11:20:58;;;;;;;23.00;11.00;;;;;;;18.34;74.46;101718.44;5033747;28;20188;-53
2023/06/08 11:23:24;;;;;;;19.08;10.57;;;;;;;18.46;75.14;101720.47;5039828;28;20210;-52